Time;durP1;ratioP1;P1;durP2;ratioP2;P2;SDS_P1;SDS_P2;PMS_P1;PMS_P2;Temp;Humidity;BMP_temperature;BMP_pressure;BME280_temperature;BME280_humidity;BME280_pressure;Samples;Min_cycle;Max_cycle;Signal;HPM_P1;HPM_P2
2023/01/20 00:00:37;;;;;;;10.37;6.57;;;;;;;-2.19;100.00;100150.88;5001866;28;20215;-72
2023/01/20 00:03:03;;;;;;;10.83;5.97;;;;;;;-2.19;100.00;100152.59;5010115;28;20554;-73
2023/01/20 00:05:30;;;;;;;13.70;6.87;;;;;;;-2.17;100.00;100154.31;5011096;28;20206;-71
2023/01/20 00:07:56;;;;;;;11.07;6.70;;;;;;;-2.16;100.00;100156.06;5010713;28;20662;-73
2023/01/20 00:10:23;;;;;;;11.30;6.53;;;;;;;-2.17;100.00;100151.75;5017497;28;20196;-73
2023/01/20 00:12:49;;;;;;;10.57;6.83;;;;;;;-2.19;100.00;100147.47;5031695;28;20226;-71
2023/01/20 00:15:15;;;;;;;10.40;7.03;;;;;;;-2.17;100.00;100154.31;5030134;28;20279;-73
2023/01/20 00:17:43;;;;;;;9.60;6.57;;;;;;;-2.18;100.00;100156.84;5031014;28;20247;-73
2023/01/20 00:20:11;;;;;;;11.57;7.13;;;;;;;-2.13;100.00;100157.78;5011727;28;20203;-72
2023/01/20 00:22:41;;;;;;;15.43;7.77;;;;;;;-2.13;100.00;100161.22;5029911;28;20196;-73
2023/01/20 00:25:09;;;;;;;11.10;6.77;;;;;;;-2.15;100.00;100164.56;5029245;28;20200;-71
2023/01/20 00:27:35;;;;;;;11.67;6.80;;;;;;;-2.14;100.00;100162.03;5032488;28;20371;-72
2023/01/20 00:30:02;;;;;;;16.20;8.13;;;;;;;-2.17;100.00;100161.97;5010877;28;20201;-73
2023/01/20 00:32:28;;;;;;;10.70;6.87;;;;;;;-2.17;100.00;100166.25;5014729;28;20207;-72
2023/01/20 00:34:56;;;;;;;12.33;6.90;;;;;;;-2.20;100.00;100166.19;5028307;28;20204;-73
2023/01/20 00:37:22;;;;;;;10.57;7.37;;;;;;;-2.20;100.00;100171.28;5031485;28;20740;-71
2023/01/20 00:39:48;;;;;;;10.17;7.17;;;;;;;-2.22;100.00;100170.41;5028218;28;20201;-72
2023/01/20 00:42:15;;;;;;;11.27;6.90;;;;;;;-2.21;100.00;100178.09;5018770;28;20208;-71
2023/01/20 00:44:41;;;;;;;11.23;7.30;;;;;;;-2.19;100.00;100178.13;5029809;28;20232;-73
2023/01/20 00:47:07;;;;;;;12.73;7.97;;;;;;;-2.20;100.00;100176.41;5006067;28;20738;-73
2023/01/20 00:49:34;;;;;;;13.10;7.33;;;;;;;-2.20;100.00;100178.94;5010617;28;20224;-73
2023/01/20 00:52:02;;;;;;;9.73;6.60;;;;;;;-2.20;100.00;100191.72;5008752;28;20192;-73
2023/01/20 00:54:28;;;;;;;11.30;6.77;;;;;;;-2.19;100.00;100191.75;5029561;28;20196;-72
2023/01/20 00:56:55;;;;;;;16.77;7.20;;;;;;;-2.13;100.00;100194.44;5028891;28;20624;-73
2023/01/20 00:59:21;;;;;;;12.17;7.37;;;;;;;-2.14;100.00;100200.38;5022153;28;20205;-72
2023/01/20 01:01:48;;;;;;;11.27;7.27;;;;;;;-2.14;100.00;100202.06;5027787;28;20242;-71
2023/01/20 01:04:14;;;;;;;10.43;7.27;;;;;;;-2.15;100.00;100203.75;5010434;28;20224;-73
2023/01/20 01:06:40;;;;;;;11.40;7.47;;;;;;;-2.15;100.00;100211.41;5034012;28;20243;-73
2023/01/20 01:09:08;;;;;;;13.00;7.00;;;;;;;-2.13;100.00;100219.09;5027014;28;20196;-73
2023/01/20 01:11:34;;;;;;;15.63;7.90;;;;;;;-2.11;100.00;100217.44;5028099;28;20234;-73
2023/01/20 01:14:01;;;;;;;12.07;7.87;;;;;;;-2.12;100.00;100215.72;5029955;28;20212;-73
2023/01/20 01:16:28;;;;;;;12.27;7.87;;;;;;;-2.09;100.00;100218.34;5028027;28;20616;-73
2023/01/20 01:18:55;;;;;;;15.33;8.70;;;;;;;-2.07;100.00;100229.44;5030583;28;20593;-73
2023/01/20 01:21:21;;;;;;;14.73;8.00;;;;;;;-2.05;100.00;100224.38;5027239;28;20295;-73
2023/01/20 01:23:48;;;;;;;11.40;8.23;;;;;;;-2.03;100.00;100220.16;5028030;28;20604;-73
2023/01/20 01:26:15;;;;;;;11.40;7.27;;;;;;;-2.03;100.00;100225.25;5015052;28;20191;-71
2023/01/20 01:28:42;;;;;;;12.47;7.87;;;;;;;-2.00;100.00;100222.75;5025695;28;20212;-73
2023/01/20 01:31:08;;;;;;;13.03;7.73;;;;;;;-2.01;100.00;100234.66;5025035;28;20707;-73
2023/01/20 01:33:36;;;;;;;12.47;8.57;;;;;;;-2.01;100.00;100236.34;5025331;28;20200;-71
2023/01/20 01:36:04;;;;;;;10.33;6.97;;;;;;;-2.01;100.00;100242.31;5022838;28;21568;-73
2023/01/20 01:38:31;;;;;;;13.57;7.90;;;;;;;-2.01;100.00;100236.34;5010729;28;20247;-72
2023/01/20 01:40:57;;;;;;;14.27;8.43;;;;;;;-2.02;100.00;100238.06;5028761;28;20192;-73
2023/01/20 01:43:27;;;;;;;13.37;7.83;;;;;;;-2.03;100.00;100244.00;5009406;28;20220;-73
2023/01/20 01:45:54;;;;;;;10.27;7.13;;;;;;;-2.03;100.00;100244.00;5026596;28;20212;-73
2023/01/20 01:48:23;;;;;;;14.30;8.43;;;;;;;-2.00;100.00;100249.16;5026050;28;20227;-72
2023/01/20 01:50:54;;;;;;;12.77;8.00;;;;;;;-1.98;100.00;100254.31;5025477;28;20195;-72
2023/01/20 01:53:21;;;;;;;14.27;8.40;;;;;;;-2.03;100.00;100261.03;5010022;28;20209;-73
2023/01/20 01:55:50;;;;;;;13.57;9.27;;;;;;;-2.02;100.00;100258.50;5032503;28;20196;-73
2023/01/20 01:58:21;;;;;;;12.73;8.23;;;;;;;-2.02;100.00;100263.63;5032204;28;20702;-73
2023/01/20 02:00:49;;;;;;;12.50;7.97;;;;;;;-2.00;100.00;100269.63;5030483;28;20537;-73
2023/01/20 02:03:15;;;;;;;13.93;8.70;;;;;;;-1.98;100.00;100264.53;5030222;28;21637;-73
2023/01/20 02:05:43;;;;;;;11.80;7.93;;;;;;;-1.96;100.00;100271.38;5037560;28;20204;-73
2023/01/20 02:08:10;;;;;;;14.03;8.27;;;;;;;-1.94;100.00;100273.97;5013520;28;20230;-71
2023/01/20 02:10:36;;;;;;;17.10;8.73;;;;;;;-1.92;100.00;100279.97;5029034;28;20227;-73
2023/01/20 02:13:03;;;;;;;12.00;7.60;;;;;;;-1.92;100.00;100285.06;5027244;28;20215;-71
2023/01/20 02:15:33;;;;;;;16.63;8.67;;;;;;;-1.93;100.00;100291.88;5028409;28;20277;-74
2023/01/20 02:18:16;;;;;;;14.57;9.23;;;;;;;-1.92;100.00;100300.41;5018214;28;20231;-72
2023/01/20 02:21:05;;;;;;;14.93;8.40;;;;;;;-1.86;100.00;100304.81;5025544;28;20204;-72
2023/01/20 02:23:57;;;;;;;13.53;8.90;;;;;;;-1.89;100.00;100303.03;5012643;28;20224;-71
2023/01/20 02:26:42;;;;;;;14.27;8.83;;;;;;;-1.84;100.00;100311.66;5026740;28;20841;-73
2023/01/20 02:29:42;;;;;;;14.50;9.20;;;;;;;-1.83;100.00;100312.50;5026787;28;20272;-74
2023/01/20 02:32:26;;;;;;;16.57;9.73;;;;;;;-1.81;100.00;100310.84;5024023;28;20197;-72
2023/01/20 02:34:58;;;;;;;13.77;8.67;;;;;;;-1.79;100.00;100315.16;5025754;28;20401;-72
2023/01/20 02:37:28;;;;;;;21.80;8.83;;;;;;;-1.78;100.00;100316.88;5008726;28;20253;-73
2023/01/20 02:40:05;;;;;;;16.80;9.17;;;;;;;-1.74;100.00;100320.38;5026536;28;20675;-73
2023/01/20 02:42:38;;;;;;;15.73;9.07;;;;;;;-1.73;100.00;100319.53;5025185;28;20204;-74
2023/01/20 02:45:10;;;;;;;14.60;8.73;;;;;;;-1.71;100.00;100317.84;5023676;28;20224;-71
2023/01/20 02:47:45;;;;;;;18.07;10.23;;;;;;;-1.69;100.00;100318.75;5025474;28;20224;-72
2023/01/20 02:50:17;;;;;;;13.47;8.90;;;;;;;-1.68;100.00;100322.19;5026484;28;20188;-74
2023/01/20 02:52:48;;;;;;;15.30;9.47;;;;;;;-1.65;100.00;100324.78;5029233;28;20200;-73
2023/01/20 02:55:19;;;;;;;14.70;9.17;;;;;;;-1.66;100.00;100323.91;5021336;28;20199;-73
2023/01/20 02:57:50;;;;;;;15.53;9.97;;;;;;;-1.66;100.00;100323.91;5024175;28;20224;-73
2023/01/20 03:00:22;;;;;;;13.63;8.77;;;;;;;-1.64;100.00;100334.19;5027981;28;20207;-72
2023/01/20 03:02:53;;;;;;;16.43;8.97;;;;;;;-1.62;100.00;100333.38;5026713;28;20205;-74
2023/01/20 03:05:24;;;;;;;18.47;9.23;;;;;;;-1.59;100.00;100330.88;5029039;28;20223;-74
2023/01/20 03:07:53;;;;;;;14.87;9.13;;;;;;;-1.57;100.00;100333.44;5030405;28;20625;-73
2023/01/20 03:10:24;;;;;;;15.80;9.83;;;;;;;-1.56;100.00;100330.06;5029826;28;20199;-73
2023/01/20 03:12:57;;;;;;;14.73;9.13;;;;;;;-1.56;100.00;100328.38;5011406;28;20205;-74
2023/01/20 03:15:31;;;;;;;14.03;8.83;;;;;;;-1.53;100.00;100337.78;5010969;28;21296;-74
2023/01/20 03:17:59;;;;;;;12.97;8.63;;;;;;;-1.53;100.00;100341.22;5005766;28;20314;-72
2023/01/20 03:20:26;;;;;;;17.93;9.83;;;;;;;-1.50;100.00;100344.66;5027049;28;20203;-74
2023/01/20 03:22:52;;;;;;;13.70;8.70;;;;;;;-1.53;100.00;100342.91;5027062;28;20660;-74
2023/01/20 03:25:19;;;;;;;16.90;9.30;;;;;;;-1.50;100.00;100342.09;5026781;28;20220;-71
2023/01/20 03:27:46;;;;;;;17.40;9.80;;;;;;;-1.48;100.00;100345.53;5027083;28;20235;-74
2023/01/20 03:30:13;;;;;;;16.33;9.90;;;;;;;-1.49;100.00;100348.97;5033593;28;20204;-74
2023/01/20 03:32:41;;;;;;;16.23;9.37;;;;;;;-1.51;100.00;100351.47;5015528;28;20218;-74
2023/01/20 03:35:10;;;;;;;15.40;9.90;;;;;;;-1.48;100.00;100351.50;5026028;28;20203;-74
2023/01/20 03:37:36;;;;;;;14.63;9.00;;;;;;;-1.49;100.00;100354.06;5026906;28;20220;-72
2023/01/20 03:40:03;;;;;;;18.00;10.07;;;;;;;-1.50;100.00;100348.06;5028094;28;20200;-74
2023/01/20 03:42:35;;;;;;;16.43;9.70;;;;;;;-1.47;100.00;100358.38;5022398;28;20204;-73
2023/01/20 03:45:06;;;;;;;15.53;9.90;;;;;;;-1.48;100.00;100354.06;5012998;28;20218;-73
2023/01/20 03:47:48;;;;;;;14.40;9.27;;;;;;;-1.49;100.00;100354.06;5022893;28;20242;-74
2023/01/20 03:50:27;;;;;;;17.33;11.17;;;;;;;-1.48;100.00;100361.75;5026300;28;20202;-74
2023/01/20 03:52:57;;;;;;;15.10;9.10;;;;;;;-1.45;100.00;100364.38;5026122;28;20516;-73
2023/01/20 03:55:29;;;;;;;16.47;10.33;;;;;;;-1.44;100.00;100370.34;5026347;28;20200;-73
2023/01/20 03:58:02;;;;;;;16.33;10.20;;;;;;;-1.46;100.00;100367.78;5025109;28;20762;-74
2023/01/20 04:00:33;;;;;;;18.37;10.73;;;;;;;-1.46;100.00;100378.00;5028318;28;20208;-74
2023/01/20 04:03:05;;;;;;;17.23;9.70;;;;;;;-1.44;100.00;100376.34;5024032;28;20227;-74
2023/01/20 04:05:33;;;;;;;17.23;9.97;;;;;;;-1.43;100.00;100377.19;5027963;28;20220;-73
2023/01/20 04:08:05;;;;;;;14.80;8.77;;;;;;;-1.45;100.00;100382.28;5013959;28;20224;-72
2023/01/20 04:10:35;;;;;;;17.37;10.13;;;;;;;-1.44;100.00;100378.88;5028804;28;20204;-72
2023/01/20 04:13:02;;;;;;;16.30;9.87;;;;;;;-1.44;100.00;100383.13;5007836;28;20228;-74
2023/01/20 04:15:32;;;;;;;14.77;8.90;;;;;;;-1.44;100.00;100390.78;5026490;28;20681;-72
2023/01/20 04:18:10;;;;;;;17.07;10.10;;;;;;;-1.44;100.00;100388.25;5024503;28;20224;-74
2023/01/20 04:20:38;;;;;;;16.97;9.17;;;;;;;-1.43;100.00;100393.38;5026343;28;20204;-74
2023/01/20 04:23:06;;;;;;;17.83;10.27;;;;;;;-1.47;100.00;100391.63;5029067;28;20979;-73
2023/01/20 04:25:33;;;;;;;19.07;10.33;;;;;;;-1.45;100.00;100400.16;5022032;28;20227;-73
2023/01/20 04:28:00;;;;;;;15.50;9.43;;;;;;;-1.45;100.00;100396.75;5025949;28;20232;-72
2023/01/20 04:30:26;;;;;;;18.70;9.90;;;;;;;-1.44;100.00;100401.91;5023206;28;20193;-74
2023/01/20 04:32:52;;;;;;;17.63;10.07;;;;;;;-1.44;100.00;100408.69;5023898;28;20215;-74
2023/01/20 04:35:20;;;;;;;17.93;10.63;;;;;;;-1.43;100.00;100408.72;5008002;28;20192;-73
2023/01/20 04:37:47;;;;;;;20.30;10.63;;;;;;;-1.43;100.00;100416.41;5023462;28;20588;-72
2023/01/20 04:40:14;;;;;;;17.33;10.30;;;;;;;-1.45;100.00;100417.22;5019005;28;20200;-74
2023/01/20 04:42:40;;;;;;;17.07;9.47;;;;;;;-1.42;100.00;100414.72;5025258;28;20203;-72
2023/01/20 04:45:08;;;;;;;16.73;9.77;;;;;;;-1.43;100.00;100416.41;5024948;28;20778;-73
2023/01/20 04:47:34;;;;;;;15.60;9.47;;;;;;;-1.42;100.00;100418.16;5015068;28;20218;-74
2023/01/20 04:50:00;;;;;;;16.00;9.83;;;;;;;-1.44;100.00;100424.03;5025841;28;20584;-74
2023/01/20 04:52:27;;;;;;;15.70;10.20;;;;;;;-1.42;100.00;100417.28;5022149;28;20211;-74
2023/01/20 04:54:54;;;;;;;14.30;9.23;;;;;;;-1.41;100.00;100429.22;5023792;28;20548;-74
2023/01/20 04:57:21;;;;;;;18.30;10.30;;;;;;;-1.40;100.00;100426.69;5027510;28;20220;-75
2023/01/20 04:59:48;;;;;;;18.43;9.97;;;;;;;-1.41;100.00;100426.66;5025063;28;20215;-73
2023/01/20 05:02:15;;;;;;;14.90;10.03;;;;;;;-1.42;100.00;100436.03;5025524;28;20223;-74
2023/01/20 05:04:41;;;;;;;19.60;10.20;;;;;;;-1.42;100.00;100436.03;5008706;28;20238;-74
2023/01/20 05:07:07;;;;;;;18.30;10.00;;;;;;;-1.43;100.00;100438.56;5003310;28;20215;-72
2023/01/20 05:09:34;;;;;;;18.13;10.53;;;;;;;-1.38;100.00;100434.41;5026323;28;20222;-72
2023/01/20 05:12:02;;;;;;;19.27;10.13;;;;;;;-1.40;100.00;100443.75;5026167;28;20206;-74
2023/01/20 05:14:29;;;;;;;22.13;11.17;;;;;;;-1.41;100.00;100445.44;5019783;28;20197;-74
2023/01/20 05:16:55;;;;;;;20.07;10.63;;;;;;;-1.39;100.00;100443.78;5023377;28;20288;-74
2023/01/20 05:19:21;;;;;;;17.13;10.13;;;;;;;-1.39;100.00;100442.91;5020065;28;20200;-74
2023/01/20 05:21:48;;;;;;;21.70;11.43;;;;;;;-1.39;100.00;100450.56;5025158;28;20291;-74
2023/01/20 05:24:14;;;;;;;16.90;10.37;;;;;;;-1.40;100.00;100448.88;5030306;28;20204;-74
2023/01/20 05:26:40;;;;;;;19.07;10.30;;;;;;;-1.41;100.00;100457.38;5028976;28;20219;-74
2023/01/20 05:29:08;;;;;;;20.97;11.03;;;;;;;-1.38;100.00;100455.72;5001593;28;20331;-72
2023/01/20 05:31:36;;;;;;;14.97;9.73;;;;;;;-1.37;100.00;100467.69;4998769;28;20211;-74
2023/01/20 05:34:02;;;;;;;19.97;10.93;;;;;;;-1.36;100.00;100471.09;5005260;28;20197;-74
2023/01/20 05:36:29;;;;;;;18.07;10.27;;;;;;;-1.36;100.00;100478.78;5011245;28;20387;-75
2023/01/20 05:39:10;;;;;;;17.00;10.47;;;;;;;-1.36;100.00;100484.75;4958432;28;20324;-72
2023/01/20 05:41:36;;;;;;;17.97;11.03;;;;;;;-1.35;100.00;100493.31;4999856;28;20193;-74
2023/01/20 05:44:03;;;;;;;20.90;11.57;;;;;;;-1.35;100.00;100489.03;4998937;28;20260;-73
2023/01/20 05:46:30;;;;;;;21.63;11.93;;;;;;;-1.35;100.00;100491.59;5004824;28;20207;-72
2023/01/20 05:48:57;;;;;;;19.33;10.57;;;;;;;-1.34;100.00;100488.22;5003017;28;20203;-74
2023/01/20 05:51:23;;;;;;;22.40;11.47;;;;;;;-1.35;100.00;100495.88;5008656;28;20436;-74
2023/01/20 05:53:49;;;;;;;19.77;11.33;;;;;;;-1.33;100.00;100501.88;5007491;28;20222;-73
2023/01/20 05:56:16;;;;;;;22.20;12.63;;;;;;;-1.36;100.00;100500.09;5003835;28;20212;-72
2023/01/20 05:58:43;;;;;;;23.20;12.67;;;;;;;-1.33;100.00;100500.16;5004065;28;20221;-73
2023/01/20 06:01:11;;;;;;;21.57;12.57;;;;;;;-1.31;100.00;100501.91;5015306;28;20279;-74
2023/01/20 06:03:39;;;;;;;22.70;13.00;;;;;;;-1.31;100.00;100515.56;4998117;28;20204;-74
2023/01/20 06:06:08;;;;;;;24.33;13.13;;;;;;;-1.34;100.00;100513.81;5001544;28;20217;-74
2023/01/20 06:08:34;;;;;;;18.97;11.53;;;;;;;-1.33;100.00;100520.63;5002141;28;20336;-73
2023/01/20 06:11:03;;;;;;;20.63;11.67;;;;;;;-1.33;100.00;100522.34;5005888;28;20205;-73
2023/01/20 06:13:29;;;;;;;20.53;11.80;;;;;;;-1.31;100.00;100530.03;5001144;28;20196;-72
2023/01/20 06:15:56;;;;;;;21.47;11.03;;;;;;;-1.31;100.00;100525.78;5001165;28;20197;-73
2023/01/20 06:18:23;;;;;;;21.10;11.13;;;;;;;-1.30;100.00;100532.63;5003694;28;20228;-74
2023/01/20 06:20:51;;;;;;;17.23;10.50;;;;;;;-1.30;100.00;100540.31;5002283;28;20210;-74
2023/01/20 06:23:18;;;;;;;20.27;11.30;;;;;;;-1.29;100.00;100546.28;5003117;28;20220;-75
2023/01/20 06:25:44;;;;;;;17.97;11.07;;;;;;;-1.30;100.00;100542.88;4996625;28;20217;-72
2023/01/20 06:28:11;;;;;;;17.57;10.77;;;;;;;-1.30;100.00;100542.00;5002894;28;20260;-74
2023/01/20 06:30:37;;;;;;;18.80;11.50;;;;;;;-1.30;100.00;100553.09;5001227;28;20291;-73
2023/01/20 06:33:09;;;;;;;18.37;10.73;;;;;;;-1.29;100.00;100552.25;4987834;28;20243;-74
2023/01/20 06:35:35;;;;;;;23.83;12.23;;;;;;;-1.26;100.00;100548.91;4995363;28;20197;-74
2023/01/20 06:38:03;;;;;;;19.33;11.80;;;;;;;-1.30;100.00;100563.34;4997754;28;20221;-73
2023/01/20 06:40:31;;;;;;;24.60;12.07;;;;;;;-1.31;100.00;100559.03;4996408;28;20205;-74
2023/01/20 06:42:58;;;;;;;21.37;11.40;;;;;;;-1.32;100.00;100559.84;4982907;28;20556;-75
2023/01/20 06:45:24;;;;;;;26.53;13.03;;;;;;;-1.33;100.00;100564.13;4998777;28;20570;-75
2023/01/20 06:47:51;;;;;;;24.77;12.37;;;;;;;-1.33;100.00;100569.25;5008785;28;20227;-73
2023/01/20 06:50:17;;;;;;;20.70;12.33;;;;;;;-1.33;100.00;100569.25;5011960;28;20288;-74
2023/01/20 06:52:43;;;;;;;20.17;11.40;;;;;;;-1.30;100.00;100573.56;4986438;28;20204;-74
2023/01/20 06:55:11;;;;;;;21.33;12.07;;;;;;;-1.28;100.00;100584.69;5004468;28;20205;-74
2023/01/20 06:57:37;;;;;;;16.60;10.27;;;;;;;-1.27;100.00;100594.06;4987278;28;20283;-74
2023/01/20 07:00:05;;;;;;;22.10;11.83;;;;;;;-1.25;100.00;100587.31;4985854;28;20336;-75
2023/01/20 07:02:31;;;;;;;23.13;12.33;;;;;;;-1.26;100.00;100590.69;5001598;28;20193;-74
2023/01/20 07:04:58;;;;;;;25.33;14.17;;;;;;;-1.24;100.00;100594.16;5007229;28;20705;-74
2023/01/20 07:07:25;;;;;;;24.43;13.87;;;;;;;-1.26;100.00;100594.97;4991483;28;20248;-74
2023/01/20 07:09:54;;;;;;;22.53;12.70;;;;;;;-1.27;100.00;100596.63;5002146;28;20260;-74
2023/01/20 07:12:21;;;;;;;23.83;13.00;;;;;;;-1.26;100.00;100594.97;5003788;28;20204;-73
2023/01/20 07:14:48;;;;;;;22.27;13.87;;;;;;;-1.27;100.00;100595.78;5005688;28;20720;-75
2023/01/20 07:17:14;;;;;;;23.77;12.53;;;;;;;-1.27;100.00;100600.91;4999275;28;20213;-74
2023/01/20 07:19:40;;;;;;;19.37;11.83;;;;;;;-1.28;100.00;100612.84;5003730;28;20224;-74
2023/01/20 07:22:07;;;;;;;27.77;12.00;;;;;;;-1.28;100.00;100617.09;5007459;28;20217;-74
2023/01/20 07:24:33;;;;;;;21.77;13.37;;;;;;;-1.25;100.00;100619.69;5001755;28;20205;-74
2023/01/20 07:26:59;;;;;;;28.00;14.30;;;;;;;-1.28;100.00;100617.94;4984604;28;20333;-75
2023/01/20 07:29:27;;;;;;;23.23;12.47;;;;;;;-1.29;100.00;100629.00;4999993;28;20662;-75
2023/01/20 07:31:53;;;;;;;23.27;11.63;;;;;;;-1.28;100.00;100628.19;4992948;28;20296;-74
2023/01/20 07:34:20;;;;;;;23.53;12.37;;;;;;;-1.28;100.00;100635.00;5003876;28;20208;-75
2023/01/20 07:36:47;;;;;;;25.57;12.30;;;;;;;-1.27;100.00;100640.13;5000573;28;20221;-74
2023/01/20 07:39:17;;;;;;;23.30;12.40;;;;;;;-1.28;100.00;100642.69;5008312;28;20207;-74
2023/01/20 07:41:47;;;;;;;27.67;13.20;;;;;;;-1.30;100.00;100645.19;4989584;28;20214;-75
2023/01/20 07:44:15;;;;;;;20.30;11.33;;;;;;;-1.30;100.00;100645.19;5003572;28;20248;-75
2023/01/20 07:46:43;;;;;;;20.50;10.87;;;;;;;-1.31;100.00;100651.13;4998740;28;20522;-74
2023/01/20 07:49:10;;;;;;;27.20;10.70;;;;;;;-1.30;100.00;100647.75;5003286;28;20202;-74
2023/01/20 07:51:38;;;;;;;24.97;11.63;;;;;;;-1.28;100.00;100651.22;5013288;28;20204;-74
2023/01/20 07:54:05;;;;;;;19.70;9.90;;;;;;;-1.26;100.00;100654.66;5013092;28;20216;-74
2023/01/20 07:56:31;;;;;;;21.87;10.10;;;;;;;-1.28;100.00;100655.47;5012755;28;20508;-74
2023/01/20 07:58:58;;;;;;;18.60;10.13;;;;;;;-1.27;100.00;100667.41;4992589;28;20216;-74
2023/01/20 08:01:27;;;;;;;17.93;9.13;;;;;;;-1.22;100.00;100666.69;5013121;28;20482;-75
2023/01/20 08:03:55;;;;;;;23.07;10.07;;;;;;;-1.19;100.00;100663.34;5010432;28;20661;-75
2023/01/20 08:06:23;;;;;;;16.87;7.93;;;;;;;-1.15;100.00;100672.81;5012348;28;20588;-75
2023/01/20 08:08:50;;;;;;;19.33;8.70;;;;;;;-1.12;100.00;100672.88;5009508;28;20208;-75
2023/01/20 08:11:18;;;;;;;16.73;8.77;;;;;;;-1.16;100.00;100671.09;5010400;28;20205;-75
2023/01/20 08:13:45;;;;;;;23.93;12.70;;;;;;;-1.15;100.00;100678.78;5015586;28;20204;-74
2023/01/20 08:16:15;;;;;;;32.57;14.67;;;;;;;-1.12;100.00;100684.81;5009100;28;20244;-75
2023/01/20 08:18:42;;;;;;;20.53;10.07;;;;;;;-1.13;100.00;100686.50;5009993;28;20207;-75
2023/01/20 08:21:17;;;;;;;23.73;11.73;;;;;;;-1.04;100.00;100691.84;4999847;28;20200;-75
2023/01/20 08:23:44;;;;;;;21.50;10.33;;;;;;;-1.12;100.00;100701.03;5012087;28;20211;-75
2023/01/20 08:26:10;;;;;;;20.37;9.80;;;;;;;-1.08;100.00;100704.53;5012665;28;20209;-74
2023/01/20 08:28:36;;;;;;;21.00;11.00;;;;;;;-1.05;100.00;100713.13;5007628;28;20227;-74
2023/01/20 08:31:05;;;;;;;20.63;10.23;;;;;;;-1.09;100.00;100713.91;5007117;28;20201;-75
2023/01/20 08:33:31;;;;;;;28.90;11.07;;;;;;;-1.03;100.00;100716.59;5005991;28;20198;-74
2023/01/20 08:36:03;;;;;;;23.83;12.03;;;;;;;-1.06;100.00;100720.78;5013194;28;20202;-75
2023/01/20 08:38:31;;;;;;;23.10;11.33;;;;;;;-1.00;100.00;100724.34;5010688;28;20228;-74
2023/01/20 08:40:57;;;;;;;20.30;10.27;;;;;;;-1.00;100.00;100721.78;5008867;28;20200;-74
2023/01/20 08:43:24;;;;;;;25.43;10.80;;;;;;;-0.99;100.00;100732.88;5012701;28;20207;-73
2023/01/20 08:45:58;;;;;;;21.23;10.47;;;;;;;-1.03;100.00;100734.50;5013654;28;20251;-73
2023/01/20 08:48:25;;;;;;;55.27;20.53;;;;;;;-1.00;100.00;100741.41;5004666;28;20253;-74
2023/01/20 08:50:51;;;;;;;41.50;17.93;;;;;;;-0.93;100.00;100744.94;5013005;28;20223;-73
2023/01/20 08:53:17;;;;;;;49.80;18.03;;;;;;;-0.81;100.00;100752.91;5014206;28;20209;-74
2023/01/20 08:55:55;;;;;;;19.33;10.50;;;;;;;-0.83;100.00;100749.44;5005538;28;20204;-74
2023/01/20 08:58:24;;;;;;;21.33;10.90;;;;;;;-0.73;100.00;100743.72;5001922;28;20235;-75
2023/01/20 09:00:51;;;;;;;22.07;11.07;;;;;;;-0.71;100.00;100748.88;5006964;28;20192;-73
2023/01/20 09:03:17;;;;;;;20.33;9.90;;;;;;;-0.66;100.00;100752.38;5014633;28;20197;-75
2023/01/20 09:05:43;;;;;;;19.57;10.00;;;;;;;-0.74;100.00;100752.19;5014506;28;20219;-75
2023/01/20 09:08:10;;;;;;;22.40;11.00;;;;;;;-0.68;100.00;100757.47;5015726;28;20234;-75
2023/01/20 09:10:36;;;;;;;25.23;10.73;;;;;;;-0.64;100.00;100751.56;5018870;28;20475;-73
2023/01/20 09:13:04;;;;;;;24.20;11.83;;;;;;;-0.68;100.00;100762.59;5012366;28;20204;-74
2023/01/20 09:15:31;;;;;;;18.70;10.40;;;;;;;-0.62;100.00;100762.72;5017775;28;20292;-73
2023/01/20 09:17:58;;;;;;;20.87;10.57;;;;;;;-0.51;100.00;100762.09;5016680;28;20216;-75
2023/01/20 09:20:24;;;;;;;19.47;10.33;;;;;;;-0.41;100.00;100759.75;5016485;28;20728;-75
2023/01/20 09:22:51;;;;;;;26.37;12.40;;;;;;;-0.36;100.00;100769.25;5016458;28;20192;-74
2023/01/20 09:25:17;;;;;;;19.33;10.47;;;;;;;-0.35;100.00;100769.28;5010301;28;20189;-73
2023/01/20 09:27:43;;;;;;;19.37;10.20;;;;;;;-0.33;100.00;100774.44;5013276;28;20228;-75
2023/01/20 09:30:12;;;;;;;18.60;9.60;;;;;;;-0.31;100.00;100780.47;5010817;28;20202;-74
2023/01/20 09:32:39;;;;;;;21.37;9.90;;;;;;;-0.31;100.00;100786.44;4999382;28;20216;-75
2023/01/20 09:35:06;;;;;;;20.00;9.63;;;;;;;-0.27;100.00;100785.66;5013577;28;20595;-75
2023/01/20 09:46:08;;;;;;;21.63;10.03;;;;;;;-0.35;100.00;100794.91;5016504;28;20226;-74
2023/01/20 09:54:23;;;;;;;16.83;8.97;;;;;;;-0.13;100.00;100792.78;5000816;28;20208;-74
2023/01/20 09:56:54;;;;;;;17.57;9.93;;;;;;;-0.27;100.00;100795.06;5010803;28;20739;-75
2023/01/20 09:59:26;;;;;;;19.10;9.70;;;;;;;-0.29;100.00;100801.84;5016705;28;20638;-75
2023/01/20 10:01:57;;;;;;;19.40;9.90;;;;;;;-0.27;100.00;100797.63;5013784;28;20568;-75
2023/01/20 10:04:31;;;;;;;17.17;9.33;;;;;;;-0.26;100.00;100796.78;5012128;28;20205;-75
2023/01/20 10:07:06;;;;;;;19.67;9.53;;;;;;;-0.30;100.00;100803.56;5013838;28;20228;-75
2023/01/20 10:09:40;;;;;;;21.20;9.03;;;;;;;-0.33;100.00;100807.75;5013495;28;20199;-73
2023/01/20 10:12:13;;;;;;;23.10;9.60;;;;;;;-0.42;100.00;100811.84;5016492;28;20286;-75
2023/01/20 10:14:43;;;;;;;14.77;8.50;;;;;;;-0.45;100.00;100809.19;5014058;28;20459;-75
2023/01/20 10:17:16;;;;;;;19.83;9.77;;;;;;;-0.40;100.00;100810.16;5019069;28;20223;-74
2023/01/20 10:19:49;;;;;;;15.73;8.67;;;;;;;-0.37;100.00;100804.22;5005000;28;20200;-73
2023/01/20 10:22:20;;;;;;;19.10;9.57;;;;;;;-0.36;100.00;100808.53;5014024;28;20212;-74
2023/01/20 10:24:54;;;;;;;19.57;9.63;;;;;;;-0.32;100.00;100805.19;5008443;28;20212;-74
2023/01/20 10:27:24;;;;;;;15.50;8.50;;;;;;;-0.43;100.00;100806.69;5002897;28;20228;-74
2023/01/20 10:29:57;;;;;;;17.93;8.43;;;;;;;-0.57;100.00;100809.78;5009137;28;20209;-75
2023/01/20 10:32:32;;;;;;;18.77;9.57;;;;;;;-0.54;100.00;100810.72;5005714;28;20223;-75
2023/01/20 10:35:03;;;;;;;19.47;9.43;;;;;;;-0.48;100.00;100801.44;5008801;28;20196;-74
2023/01/20 10:37:30;;;;;;;16.37;8.93;;;;;;;-0.40;100.00;100805.03;5005736;28;20231;-74
2023/01/20 10:40:09;;;;;;;16.27;8.70;;;;;;;-0.42;100.00;100804.16;5011993;28;20223;-75
2023/01/20 10:42:36;;;;;;;21.47;10.47;;;;;;;-0.38;100.00;100810.19;5012075;28;20193;-74
2023/01/20 10:45:02;;;;;;;19.73;10.33;;;;;;;-0.35;100.00;100801.69;5011882;28;20295;-75
2023/01/20 10:47:41;;;;;;;25.03;10.50;;;;;;;-0.26;100.00;100809.59;5005223;28;20224;-75
2023/01/20 10:50:20;;;;;;;18.20;9.70;;;;;;;-0.23;100.00;100799.41;5005351;28;20573;-74
2023/01/20 10:53:05;;;;;;;21.63;10.03;;;;;;;-0.15;100.00;100813.25;5005329;28;20301;-74
2023/01/20 10:55:43;;;;;;;18.87;9.50;;;;;;;-0.25;100.00;100817.31;4991007;28;20557;-75
2023/01/20 10:58:21;;;;;;;21.10;9.70;;;;;;;-0.23;100.00;100819.91;5004168;28;20233;-75
2023/01/20 11:00:48;;;;;;;19.47;8.73;;;;;;;-0.26;100.00;100820.72;5006117;28;20205;-74
2023/01/20 11:03:19;;;;;;;17.07;9.33;;;;;;;-0.17;100.00;100821.75;5006607;28;20204;-74
2023/01/20 11:05:47;;;;;;;16.93;8.20;;;;;;;-0.25;100.00;100819.00;4993718;28;20213;-73
2023/01/20 11:08:16;;;;;;;16.07;8.73;;;;;;;-0.18;100.00;100826.00;5009214;28;20231;-74
2023/01/20 11:10:43;;;;;;;18.57;9.37;;;;;;;-0.18;100.00;100827.69;5013576;28;20204;-72
2023/01/20 11:13:10;;;;;;;16.60;9.07;;;;;;;-0.26;100.00;100836.09;4987234;28;20196;-74
2023/01/20 11:15:40;;;;;;;25.53;9.80;;;;;;;-0.18;100.00;100837.94;4997916;28;20204;-73
2023/01/20 11:18:25;;;;;;;18.73;10.30;;;;;;;-0.16;100.00;100836.28;5003411;28;20228;-74
2023/01/20 11:20:55;;;;;;;15.03;9.27;;;;;;;-0.21;100.00;100847.31;5016232;28;20633;-74
2023/01/20 11:23:25;;;;;;;16.83;8.63;;;;;;;-0.26;100.00;100848.91;5002641;28;20201;-73
2023/01/20 11:25:57;;;;;;;19.37;9.67;;;;;;;-0.42;100.00;100846.84;4999965;28;20727;-74
2023/01/20 11:28:24;;;;;;;17.83;9.00;;;;;;;-0.45;100.00;100846.78;5002024;28;20233;-73